createdAt,value
2023-04-02T00:00:46.112Z,94413.00
2023-04-02T00:01:46.164Z,94413.00
2023-04-02T00:02:46.153Z,94413.00
2023-04-02T00:03:46.234Z,94413.00
2023-04-02T00:04:46.140Z,94413.00
2023-04-02T00:05:46.154Z,94411.00
2023-04-02T00:06:46.120Z,94413.00
2023-04-02T00:07:46.128Z,94411.00
2023-04-02T00:08:46.122Z,94409.00
2023-04-02T00:09:46.168Z,94413.00
2023-04-02T00:10:46.138Z,94413.00
2023-04-02T00:11:46.123Z,94413.00
2023-04-02T00:12:46.146Z,94415.00
2023-04-02T00:13:46.120Z,94413.00
2023-04-02T00:14:46.172Z,94417.00
2023-04-02T00:15:46.115Z,94413.00
2023-04-02T00:16:46.244Z,94417.00
2023-04-02T00:17:46.218Z,94417.00
2023-04-02T00:18:46.139Z,94419.00
2023-04-02T00:19:46.120Z,94419.00
2023-04-02T00:20:46.120Z,94417.00
2023-04-02T00:21:46.119Z,94417.00
2023-04-02T00:22:47.268Z,94419.00
2023-04-02T00:23:46.155Z,94417.00
2023-04-02T00:24:46.126Z,94419.00
2023-04-02T00:25:46.131Z,94419.00
2023-04-02T00:26:46.118Z,94419.00
2023-04-02T00:27:46.146Z,94419.00
2023-04-02T00:28:46.165Z,94423.00
2023-04-02T00:29:46.118Z,94425.00
2023-04-02T00:30:46.117Z,94425.00
2023-04-02T00:31:46.203Z,94431.00
2023-04-02T00:32:47.320Z,94425.00
2023-04-02T00:33:46.189Z,94429.00
2023-04-02T00:34:46.117Z,94431.00
2023-04-02T00:35:46.126Z,94429.00
2023-04-02T00:36:46.127Z,94429.00
2023-04-02T00:37:46.126Z,94431.00
2023-04-02T00:38:47.552Z,94435.00
2023-04-02T00:39:46.161Z,94431.00
2023-04-02T00:40:46.128Z,94433.00
2023-04-02T00:41:46.119Z,94433.00
2023-04-02T00:42:46.141Z,94433.00
2023-04-02T00:43:46.113Z,94429.00
2023-04-02T00:44:46.146Z,94431.00
2023-04-02T00:45:46.139Z,94429.00
2023-04-02T00:46:46.114Z,94427.00
2023-04-02T00:47:46.155Z,94431.00
2023-04-02T00:48:46.115Z,94429.00
2023-04-02T00:49:46.111Z,94427.00
2023-04-02T00:50:46.121Z,94427.00
2023-04-02T00:51:46.131Z,94427.00
2023-04-02T00:52:46.146Z,94429.00
2023-04-02T00:53:46.130Z,94429.00
2023-04-02T00:54:46.137Z,94427.00
2023-04-02T00:55:46.157Z,94427.00
2023-04-02T00:56:46.182Z,94429.00
2023-04-02T00:57:46.179Z,94429.00
2023-04-02T00:58:46.162Z,94429.00
2023-04-02T00:59:46.180Z,94429.00
2023-04-02T01:00:46.203Z,94429.00
2023-04-02T01:01:46.306Z,94427.00
2023-04-02T01:02:46.253Z,94425.00
2023-04-02T01:03:46.280Z,94425.00
2023-04-02T01:04:46.216Z,94423.00
2023-04-02T01:05:46.233Z,94419.00
2023-04-02T01:06:46.311Z,94423.00
2023-04-02T01:07:46.228Z,94419.00
2023-04-02T01:08:46.248Z,94419.00
2023-04-02T01:09:46.267Z,94421.00
2023-04-02T01:10:46.246Z,94419.00
2023-04-02T01:11:46.256Z,94419.00
2023-04-02T01:12:46.286Z,94421.00
2023-04-02T01:13:46.255Z,94423.00
2023-04-02T01:14:46.263Z,94423.00
2023-04-02T01:15:46.309Z,94429.00
2023-04-02T01:16:46.335Z,94427.00
2023-04-02T01:17:46.386Z,94427.00
2023-04-02T01:18:46.384Z,94429.00
2023-04-02T01:19:46.336Z,94429.00
2023-04-02T01:20:46.354Z,94429.00
2023-04-02T01:21:46.410Z,94427.00
2023-04-02T01:22:46.491Z,94427.00
2023-04-02T01:23:46.545Z,94431.00
2023-04-02T01:24:46.619Z,94429.00
2023-04-02T01:25:46.657Z,94429.00
2023-04-02T01:26:46.698Z,94429.00
2023-04-02T01:27:46.763Z,94433.00
2023-04-02T01:28:46.807Z,94431.00
2023-04-02T01:29:46.849Z,94429.00
2023-04-02T01:30:46.908Z,94431.00
2023-04-02T01:31:46.983Z,94431.00
2023-04-02T01:32:47.108Z,94429.00
2023-04-02T01:33:47.070Z,94433.00
2023-04-02T01:34:47.170Z,94431.00
2023-04-02T01:35:47.271Z,94429.00
2023-04-02T01:36:47.297Z,94431.00
2023-04-02T01:37:47.358Z,94433.00
2023-04-02T01:38:47.403Z,94433.00
2023-04-02T01:39:47.457Z,94431.00
2023-04-02T01:40:47.522Z,94435.00
2023-04-02T01:41:47.566Z,94437.00
2023-04-02T01:42:47.622Z,94437.00
2023-04-02T01:43:47.692Z,94437.00
2023-04-02T01:44:47.747Z,94439.00
2023-04-02T01:45:47.812Z,94437.00
2023-04-02T01:46:47.916Z,94437.00
2023-04-02T01:47:47.939Z,94437.00
2023-04-02T01:48:47.969Z,94439.00
2023-04-02T01:49:47.984Z,94441.00
2023-04-02T01:50:48.037Z,94442.00
2023-04-02T01:51:48.054Z,94444.00
2023-04-02T01:52:48.082Z,94442.00
2023-04-02T01:53:48.122Z,94448.00
2023-04-02T01:54:48.160Z,94448.00
2023-04-02T01:55:48.181Z,94444.00
2023-04-02T01:56:48.216Z,94448.00
2023-04-02T01:57:48.230Z,94448.00
2023-04-02T01:58:48.304Z,94450.00
2023-04-02T01:59:48.343Z,94446.00
2023-04-02T02:00:48.393Z,94452.00
2023-04-02T02:01:48.516Z,94450.00
2023-04-02T02:02:48.584Z,94454.00
2023-04-02T02:03:48.608Z,94454.00
2023-04-02T02:04:48.683Z,94456.00
2023-04-02T02:05:48.694Z,94456.00
2023-04-02T02:06:48.729Z,94460.00
2023-04-02T02:07:48.778Z,94458.00
2023-04-02T02:08:48.878Z,94462.00
2023-04-02T02:09:48.890Z,94464.00
2023-04-02T02:10:48.936Z,94466.00
2023-04-02T02:11:48.978Z,94466.00
2023-04-02T02:12:49.023Z,94464.00
2023-04-02T02:13:49.072Z,94462.00
2023-04-02T02:14:49.108Z,94464.00
2023-04-02T02:15:49.167Z,94468.00
2023-04-02T02:16:49.308Z,94470.00
2023-04-02T02:17:49.320Z,94468.00
2023-04-02T02:18:49.367Z,94476.00
2023-04-02T02:19:49.439Z,94474.00
2023-04-02T02:20:49.485Z,94468.00
2023-04-02T02:21:49.513Z,94470.00
2023-04-02T02:22:49.623Z,94470.00
2023-04-02T02:23:49.653Z,94466.00
2023-04-02T02:24:49.708Z,94466.00
2023-04-02T02:25:49.767Z,94466.00
2023-04-02T02:26:49.815Z,94470.00
2023-04-02T02:27:49.875Z,94470.00
2023-04-02T02:28:49.933Z,94468.00
2023-04-02T02:29:49.953Z,94474.00
2023-04-02T02:30:50.002Z,94474.00
2023-04-02T02:31:50.129Z,94474.00
2023-04-02T02:32:50.108Z,94474.00
2023-04-02T02:33:50.139Z,94472.00
2023-04-02T02:34:50.182Z,94476.00
2023-04-02T02:35:50.231Z,94478.00
2023-04-02T02:36:50.277Z,94480.00
2023-04-02T02:37:50.311Z,94480.00
2023-04-02T02:38:50.390Z,94480.00
2023-04-02T02:39:50.425Z,94480.00
2023-04-02T02:40:50.525Z,94486.00
2023-04-02T02:41:50.582Z,94484.00
2023-04-02T02:42:50.672Z,94486.00
2023-04-02T02:43:50.734Z,94486.00
2023-04-02T02:44:50.812Z,94486.00
2023-04-02T02:45:50.906Z,94488.00
2023-04-02T02:46:50.909Z,94488.00
2023-04-02T02:47:50.999Z,94488.00
2023-04-02T02:48:51.047Z,94488.00
2023-04-02T02:49:51.123Z,94492.00
2023-04-02T02:50:51.190Z,94492.00
2023-04-02T02:51:51.256Z,94494.00
2023-04-02T02:52:51.357Z,94496.00
2023-04-02T02:53:51.360Z,94494.00
2023-04-02T02:54:51.412Z,94497.00
2023-04-02T02:55:51.454Z,94496.00
2023-04-02T02:56:51.524Z,94497.00
2023-04-02T02:57:51.569Z,94497.00
2023-04-02T02:58:51.605Z,94505.00
2023-04-02T02:59:51.665Z,94507.00
2023-04-02T03:00:51.722Z,94503.00
2023-04-02T03:01:51.787Z,94505.00
2023-04-02T03:02:51.996Z,94499.00
2023-04-02T03:03:51.985Z,94501.00
2023-04-02T03:04:51.928Z,94501.00
2023-04-02T03:05:51.973Z,94501.00
2023-04-02T03:06:52.016Z,94501.00
2023-04-02T03:07:52.057Z,94503.00
2023-04-02T03:08:52.143Z,94505.00
2023-04-02T03:09:52.165Z,94509.00
2023-04-02T03:10:52.233Z,94507.00
2023-04-02T03:11:52.277Z,94507.00
2023-04-02T03:12:52.342Z,94505.00
2023-04-02T03:13:52.415Z,94505.00
2023-04-02T03:14:52.483Z,94505.00
2023-04-02T03:15:52.598Z,94501.00
2023-04-02T03:16:52.620Z,94503.00
2023-04-02T03:17:52.758Z,94503.00
2023-04-02T03:18:52.755Z,94507.00
2023-04-02T03:19:52.820Z,94509.00
2023-04-02T03:20:52.891Z,94511.00
2023-04-02T03:21:52.943Z,94509.00
2023-04-02T03:22:53.001Z,94513.00
2023-04-02T03:23:53.059Z,94513.00
2023-04-02T03:24:53.147Z,94519.00
2023-04-02T03:25:53.170Z,94517.00
2023-04-02T03:26:53.243Z,94519.00
2023-04-02T03:27:53.295Z,94519.00
2023-04-02T03:28:53.359Z,94517.00
2023-04-02T03:29:53.430Z,94519.00
2023-04-02T03:30:53.539Z,94517.00
2023-04-02T03:31:53.553Z,94515.00
2023-04-02T03:32:53.645Z,94515.00
2023-04-02T03:33:53.638Z,94519.00
2023-04-02T03:34:53.685Z,94523.00
2023-04-02T03:35:53.748Z,94523.00
2023-04-02T03:36:53.769Z,94525.00
2023-04-02T03:37:53.814Z,94525.00
2023-04-02T03:38:53.860Z,94527.00
2023-04-02T03:39:53.922Z,94529.00
2023-04-02T03:40:54.022Z,94531.00
2023-04-02T03:41:54.057Z,94529.00
2023-04-02T03:42:54.135Z,94535.00
2023-04-02T03:43:54.219Z,94533.00
2023-04-02T03:44:54.298Z,94533.00
2023-04-02T03:45:54.350Z,94535.00
2023-04-02T03:46:54.448Z,94535.00
2023-04-02T03:47:54.515Z,94535.00
2023-04-02T03:48:54.569Z,94537.00
2023-04-02T03:49:54.609Z,94537.00
2023-04-02T03:50:54.692Z,94537.00
2023-04-02T03:51:54.746Z,94539.00
2023-04-02T03:52:54.778Z,94541.00
2023-04-02T03:53:54.829Z,94543.00
2023-04-02T03:54:54.862Z,94541.00
2023-04-02T03:55:54.907Z,94543.00
2023-04-02T03:56:55.056Z,94543.00
2023-04-02T03:57:54.974Z,94543.00
2023-04-02T03:58:55.002Z,94544.00
2023-04-02T03:59:55.026Z,94544.00
2023-04-02T04:00:55.045Z,94548.00
2023-04-02T04:01:55.129Z,94548.00
2023-04-02T04:02:55.160Z,94548.00
2023-04-02T04:03:55.122Z,94550.00
2023-04-02T04:04:55.138Z,94556.00
2023-04-02T04:05:55.174Z,94554.00
2023-04-02T04:06:55.192Z,94556.00
2023-04-02T04:07:55.229Z,94556.00
2023-04-02T04:08:55.269Z,94556.00
2023-04-02T04:09:55.325Z,94550.00
2023-04-02T04:10:55.378Z,94554.00
2023-04-02T04:11:55.378Z,94554.00
2023-04-02T04:12:55.429Z,94552.00
2023-04-02T04:13:55.434Z,94552.00
2023-04-02T04:14:55.496Z,94552.00
2023-04-02T04:15:55.525Z,94554.00
2023-04-02T04:16:55.699Z,94556.00
2023-04-02T04:17:55.577Z,94560.00
2023-04-02T04:18:55.577Z,94558.00
2023-04-02T04:19:55.622Z,94564.00
2023-04-02T04:20:55.671Z,94562.00
2023-04-02T04:21:55.697Z,94562.00
2023-04-02T04:22:55.921Z,94566.00
2023-04-02T04:23:55.769Z,94570.00
2023-04-02T04:24:55.811Z,94568.00
2023-04-02T04:25:55.855Z,94562.00
2023-04-02T04:26:55.874Z,94566.00
2023-04-02T04:27:55.908Z,94564.00
2023-04-02T04:28:55.958Z,94564.00
2023-04-02T04:29:55.953Z,94568.00
2023-04-02T04:30:55.981Z,94572.00
2023-04-02T04:31:56.183Z,94572.00
2023-04-02T04:32:56.062Z,94574.00
2023-04-02T04:33:56.039Z,94578.00
2023-04-02T04:34:56.055Z,94580.00
2023-04-02T04:35:56.154Z,94578.00
2023-04-02T04:36:56.109Z,94582.00
2023-04-02T04:37:56.130Z,94582.00
2023-04-02T04:38:56.153Z,94584.00
2023-04-02T04:39:56.181Z,94582.00
2023-04-02T04:40:56.203Z,94586.00
2023-04-02T04:41:56.250Z,94588.00
2023-04-02T04:42:56.280Z,94590.00
2023-04-02T04:43:56.320Z,94590.00
2023-04-02T04:44:56.372Z,94591.00
2023-04-02T04:45:56.426Z,94595.00
2023-04-02T04:46:56.418Z,94595.00
2023-04-02T04:47:56.508Z,94597.00
2023-04-02T04:48:56.454Z,94599.00
2023-04-02T04:49:56.503Z,94599.00
2023-04-02T04:50:56.522Z,94601.00
2023-04-02T04:51:56.560Z,94605.00
2023-04-02T04:52:56.754Z,94605.00
2023-04-02T04:53:56.626Z,94607.00
2023-04-02T04:54:56.658Z,94609.00
2023-04-02T04:55:59.678Z,94609.00
2023-04-02T04:56:56.718Z,94611.00
2023-04-02T04:57:56.717Z,94607.00
2023-04-02T04:58:56.724Z,94607.00
2023-04-02T04:59:56.732Z,94607.00
2023-04-02T05:00:56.760Z,94609.00
2023-04-02T05:01:56.796Z,94611.00
2023-04-02T05:02:56.773Z,94611.00
2023-04-02T05:03:56.793Z,94609.00
2023-04-02T05:04:56.878Z,94611.00
2023-04-02T05:05:56.794Z,94611.00
2023-04-02T05:06:56.823Z,94613.00
2023-04-02T05:07:57.929Z,94613.00
2023-04-02T05:08:56.861Z,94611.00
2023-04-02T05:09:56.886Z,94611.00
2023-04-02T05:10:56.905Z,94611.00
2023-04-02T05:11:56.948Z,94613.00
2023-04-02T05:12:56.953Z,94615.00
2023-04-02T05:13:56.968Z,94615.00
2023-04-02T05:14:57.017Z,94617.00
2023-04-02T05:15:57.776Z,94615.00
2023-04-02T05:16:57.076Z,94615.00
2023-04-02T05:17:57.088Z,94617.00
2023-04-02T05:18:57.094Z,94619.00
2023-04-02T05:19:57.130Z,94619.00
2023-04-02T05:20:57.124Z,94619.00
2023-04-02T05:21:57.159Z,94621.00
2023-04-02T05:22:57.177Z,94623.00
2023-04-02T05:23:57.211Z,94625.00
2023-04-02T05:24:57.253Z,94623.00
2023-04-02T05:25:57.263Z,94627.00
2023-04-02T05:26:57.299Z,94629.00
2023-04-02T05:27:57.326Z,94629.00
2023-04-02T05:28:57.387Z,94631.00
2023-04-02T05:29:57.383Z,94633.00
2023-04-02T05:30:56.487Z,94633.00
2023-04-02T05:31:57.449Z,94635.00
2023-04-02T05:32:57.623Z,94637.00
2023-04-02T05:33:57.508Z,94637.00
2023-04-02T05:34:57.528Z,94644.00
2023-04-02T05:35:57.643Z,94644.00
2023-04-02T05:36:57.582Z,94646.00
2023-04-02T05:37:57.609Z,94646.00
2023-04-02T05:38:57.647Z,94650.00
2023-04-02T05:39:57.655Z,94650.00
2023-04-02T05:40:57.668Z,94654.00
2023-04-02T05:41:57.693Z,94652.00
2023-04-02T05:42:57.712Z,94654.00
2023-04-02T05:43:57.730Z,94656.00
2023-04-02T05:44:57.738Z,94654.00
2023-04-02T05:45:57.752Z,94658.00
2023-04-02T05:46:57.810Z,94656.00
2023-04-02T05:47:57.825Z,94658.00
2023-04-02T05:48:57.828Z,94658.00
2023-04-02T05:49:57.810Z,94662.00
2023-04-02T05:50:57.826Z,94662.00
2023-04-02T05:51:57.926Z,94664.00
2023-04-02T05:52:57.864Z,94662.00
2023-04-02T05:53:57.914Z,94662.00
2023-04-02T05:54:57.946Z,94666.00
2023-04-02T05:55:58.008Z,94668.00
2023-04-02T05:56:58.038Z,94668.00
2023-04-02T05:58:17.704Z,94670.00
2023-04-02T05:58:58.317Z,94670.00
2023-04-02T05:59:58.077Z,94672.00
2023-04-02T06:00:58.087Z,94674.00
2023-04-02T06:01:58.162Z,94676.00
2023-04-02T06:02:58.182Z,94680.00
2023-04-02T06:03:58.171Z,94678.00
2023-04-02T06:04:58.149Z,94678.00
2023-04-02T06:05:58.124Z,94676.00
2023-04-02T06:06:58.127Z,94676.00
2023-04-02T06:07:58.152Z,94682.00
2023-04-02T06:08:58.149Z,94680.00
2023-04-02T06:09:58.155Z,94682.00
2023-04-02T06:10:58.176Z,94683.00
2023-04-02T06:11:58.168Z,94682.00
2023-04-02T06:12:58.175Z,94683.00
2023-04-02T06:13:58.202Z,94687.00
2023-04-02T06:14:58.203Z,94687.00
2023-04-02T06:15:58.217Z,94687.00
2023-04-02T06:16:58.279Z,94691.00
2023-04-02T06:17:58.279Z,94693.00
2023-04-02T06:18:58.258Z,94693.00
2023-04-02T06:19:58.263Z,94693.00
2023-04-02T06:20:58.319Z,94693.00
2023-04-02T06:21:58.288Z,94693.00
2023-04-02T06:22:58.291Z,94697.00
2023-04-02T06:23:58.308Z,94693.00
2023-04-02T06:24:58.312Z,94697.00
2023-04-02T06:25:58.347Z,94693.00
2023-04-02T06:26:58.409Z,94695.00
2023-04-02T06:27:58.491Z,94693.00
2023-04-02T06:28:58.537Z,94697.00
2023-04-02T06:29:58.582Z,94695.00
2023-04-02T06:30:58.694Z,94695.00
2023-04-02T06:31:58.674Z,94687.00
2023-04-02T06:32:58.757Z,94691.00
2023-04-02T06:33:58.732Z,94693.00
2023-04-02T06:34:58.771Z,94693.00
2023-04-02T06:35:58.845Z,94693.00
2023-04-02T06:36:58.823Z,94689.00
2023-04-02T06:37:58.825Z,94693.00
2023-04-02T06:38:58.841Z,94693.00
2023-04-02T06:39:58.857Z,94695.00
2023-04-02T06:40:59.176Z,94693.00
2023-04-02T06:41:58.844Z,94693.00
2023-04-02T06:42:58.864Z,94695.00
2023-04-02T06:43:58.889Z,94693.00
2023-04-02T06:44:58.848Z,94695.00
2023-04-02T06:45:58.941Z,94695.00
2023-04-02T06:46:58.847Z,94695.00
2023-04-02T06:47:58.968Z,94697.00
2023-04-02T06:48:58.838Z,94699.00
2023-04-02T06:49:58.833Z,94697.00
2023-04-02T06:50:58.835Z,94703.00
2023-04-02T06:51:58.844Z,94701.00
2023-04-02T06:52:58.924Z,94705.00
2023-04-02T06:53:58.936Z,94703.00
2023-04-02T06:54:58.980Z,94709.00
2023-04-02T06:55:58.980Z,94709.00
2023-04-02T06:56:59.081Z,94705.00
2023-04-02T06:57:59.053Z,94709.00
2023-04-02T06:58:59.104Z,94707.00
2023-04-02T06:59:59.149Z,94709.00
2023-04-02T07:00:59.200Z,94713.00
2023-04-02T07:01:59.262Z,94707.00
2023-04-02T07:02:59.319Z,94707.00
2023-04-02T07:03:59.361Z,94709.00
2023-04-02T07:04:59.426Z,94709.00
2023-04-02T07:05:59.445Z,94709.00
2023-04-02T07:06:59.476Z,94707.00
2023-04-02T07:07:59.524Z,94709.00
2023-04-02T07:08:59.583Z,94705.00
2023-04-02T07:09:59.586Z,94705.00
2023-04-02T07:10:59.609Z,94709.00
2023-04-02T07:11:59.626Z,94707.00
2023-04-02T07:12:59.644Z,94711.00
2023-04-02T07:13:59.692Z,94711.00
2023-04-02T07:14:59.709Z,94711.00
2023-04-02T07:15:59.787Z,94715.00
2023-04-02T07:16:59.760Z,94711.00
2023-04-02T07:17:59.811Z,94711.00
2023-04-02T07:18:59.802Z,94711.00
2023-04-02T07:20:00.229Z,94711.00
2023-04-02T07:20:59.857Z,94713.00
2023-04-02T07:21:59.875Z,94707.00
2023-04-02T07:22:59.912Z,94711.00
2023-04-02T07:23:59.924Z,94711.00
2023-04-02T07:25:00.023Z,94709.00
2023-04-02T07:25:59.999Z,94711.00
2023-04-02T07:27:00.031Z,94711.00
2023-04-02T07:28:00.060Z,94709.00
2023-04-02T07:29:00.031Z,94709.00
2023-04-02T07:30:00.030Z,94709.00
2023-04-02T07:31:00.005Z,94711.00
2023-04-02T07:31:59.976Z,94713.00
2023-04-02T07:32:59.984Z,94709.00
2023-04-02T07:33:58.921Z,94715.00
2023-04-02T07:34:59.942Z,94709.00
2023-04-02T07:36:00.005Z,94713.00
2023-04-02T07:37:00.009Z,94713.00
2023-04-02T07:38:00.021Z,94715.00
2023-04-02T07:39:00.040Z,94711.00
2023-04-02T07:40:00.017Z,94717.00
2023-04-02T07:41:00.105Z,94721.00
2023-04-02T07:42:00.080Z,94719.00
2023-04-02T07:43:00.074Z,94721.00
2023-04-02T07:44:00.079Z,94723.00
2023-04-02T07:45:00.144Z,94723.00
2023-04-02T07:46:00.170Z,94723.00
2023-04-02T07:47:00.303Z,94725.00
2023-04-02T07:48:00.231Z,94723.00
2023-04-02T07:49:00.188Z,94727.00
2023-04-02T07:50:00.205Z,94727.00
2023-04-02T07:51:00.208Z,94729.00
2023-04-02T07:52:00.203Z,94727.00
2023-04-02T07:53:00.175Z,94730.00
2023-04-02T07:54:00.162Z,94732.00
2023-04-02T07:55:00.157Z,94730.00
2023-04-02T07:56:00.144Z,94732.00
2023-04-02T07:57:00.210Z,94732.00
2023-04-02T07:58:00.180Z,94730.00
2023-04-02T07:59:00.156Z,94732.00
2023-04-02T08:00:00.178Z,94732.00
2023-04-02T08:01:00.162Z,94734.00
2023-04-02T08:02:00.215Z,94730.00
2023-04-02T08:03:00.201Z,94732.00
2023-04-02T08:04:00.169Z,94734.00
2023-04-02T08:05:00.073Z,94734.00
2023-04-02T08:06:00.040Z,94732.00
2023-04-02T08:06:59.986Z,94736.00
2023-04-02T08:07:59.952Z,94734.00
2023-04-02T08:08:59.870Z,94734.00
2023-04-02T08:09:59.823Z,94730.00
2023-04-02T08:10:59.802Z,94730.00
2023-04-02T08:11:59.742Z,94732.00
2023-04-02T08:12:59.715Z,94732.00
2023-04-02T08:13:59.681Z,94732.00
2023-04-02T08:15:00.028Z,94732.00
2023-04-02T08:15:59.639Z,94732.00
2023-04-02T08:16:59.729Z,94734.00
2023-04-02T08:17:59.685Z,94736.00
2023-04-02T08:18:59.668Z,94734.00
2023-04-02T08:19:59.663Z,94732.00
2023-04-02T08:20:59.694Z,94732.00
2023-04-02T08:21:59.665Z,94736.00
2023-04-02T08:22:59.680Z,94734.00
2023-04-02T08:23:59.702Z,94732.00
2023-04-02T08:24:59.668Z,94732.00
2023-04-02T08:25:59.640Z,94736.00
2023-04-02T08:26:59.618Z,94734.00
2023-04-02T08:27:59.572Z,94732.00
2023-04-02T08:28:59.566Z,94734.00
2023-04-02T08:29:59.498Z,94736.00
2023-04-02T08:30:59.527Z,94736.00
2023-04-02T08:31:59.448Z,94732.00
2023-04-02T08:32:59.468Z,94732.00
2023-04-02T08:33:59.393Z,94732.00
2023-04-02T08:35:00.452Z,94738.00
2023-04-02T08:35:59.404Z,94732.00
2023-04-02T08:36:59.312Z,94732.00
2023-04-02T08:37:59.270Z,94732.00
2023-04-02T08:38:59.256Z,94734.00
2023-04-02T08:39:59.268Z,94736.00
2023-04-02T08:40:59.282Z,94734.00
2023-04-02T08:41:59.241Z,94738.00
2023-04-02T08:42:59.192Z,94736.00
2023-04-02T08:43:59.177Z,94736.00
2023-04-02T08:44:59.228Z,94732.00
2023-04-02T08:45:59.213Z,94734.00
2023-04-02T08:46:59.189Z,94732.00
2023-04-02T08:47:59.247Z,94736.00
2023-04-02T08:48:59.169Z,94738.00
2023-04-02T08:49:59.116Z,94736.00
2023-04-02T08:50:59.072Z,94738.00
2023-04-02T08:51:59.053Z,94736.00
2023-04-02T08:52:59.019Z,94734.00
2023-04-02T08:53:58.954Z,94732.00
2023-04-02T08:54:58.914Z,94734.00
2023-04-02T08:55:58.889Z,94732.00
2023-04-02T08:56:58.858Z,94732.00
2023-04-02T08:57:58.766Z,94730.00
2023-04-02T08:58:58.737Z,94730.00
2023-04-02T08:59:58.720Z,94734.00
2023-04-02T09:00:58.740Z,94736.00
2023-04-02T09:01:58.818Z,94734.00
2023-04-02T09:02:58.723Z,94736.00
2023-04-02T09:03:58.690Z,94736.00
2023-04-02T09:04:58.677Z,94734.00
2023-04-02T09:05:58.652Z,94732.00
2023-04-02T09:06:58.695Z,94734.00
2023-04-02T09:07:58.641Z,94736.00
2023-04-02T09:08:58.634Z,94736.00
2023-04-02T09:09:58.656Z,94734.00
2023-04-02T09:10:58.625Z,94734.00
2023-04-02T09:11:58.616Z,94736.00
2023-04-02T09:12:58.616Z,94734.00
2023-04-02T09:13:58.578Z,94738.00
2023-04-02T09:14:58.706Z,94738.00
2023-04-02T09:15:58.554Z,94740.00
2023-04-02T09:16:58.548Z,94738.00
2023-04-02T09:17:59.612Z,94740.00
2023-04-02T09:18:58.505Z,94740.00
2023-04-02T09:19:58.489Z,94738.00
2023-04-02T09:20:58.474Z,94738.00
2023-04-02T09:21:58.445Z,94738.00
2023-04-02T09:22:58.430Z,94740.00
2023-04-02T09:23:58.410Z,94740.00
2023-04-02T09:24:58.393Z,94738.00
2023-04-02T09:26:04.121Z,94736.00
2023-04-02T09:26:58.324Z,94736.00
2023-04-02T09:27:58.241Z,94738.00
2023-04-02T09:28:58.166Z,94736.00
2023-04-02T09:29:57.091Z,94740.00
2023-04-02T09:30:58.024Z,94734.00
2023-04-02T09:31:58.053Z,94736.00
2023-04-02T09:32:58.001Z,94738.00
2023-04-02T09:33:57.852Z,94738.00
2023-04-02T09:34:57.764Z,94736.00
2023-04-02T09:35:57.882Z,94736.00
2023-04-02T09:36:57.637Z,94736.00
2023-04-02T09:37:57.554Z,94736.00
2023-04-02T09:38:57.558Z,94736.00
2023-04-02T09:39:57.507Z,94734.00
2023-04-02T09:40:57.473Z,94738.00
2023-04-02T09:42:05.148Z,94738.00
2023-04-02T09:42:57.374Z,94738.00
2023-04-02T09:43:57.513Z,94736.00
2023-04-02T09:44:57.210Z,94740.00
2023-04-02T09:45:57.122Z,94740.00
2023-04-02T09:46:57.083Z,94740.00
2023-04-02T09:47:57.033Z,94744.00
2023-04-02T09:48:56.936Z,94740.00
2023-04-02T09:49:56.846Z,94740.00
2023-04-02T09:50:56.752Z,94740.00
2023-04-02T09:51:56.678Z,94738.00
2023-04-02T09:52:56.612Z,94742.00
2023-04-02T09:53:56.552Z,94740.00
2023-04-02T09:54:56.513Z,94742.00
2023-04-02T09:55:56.411Z,94744.00
2023-04-02T09:56:56.360Z,94744.00
2023-04-02T09:57:56.282Z,94746.00
2023-04-02T09:58:56.215Z,94744.00
2023-04-02T09:59:56.143Z,94740.00
2023-04-02T10:00:56.089Z,94744.00
2023-04-02T10:01:56.065Z,94742.00
2023-04-02T10:02:55.910Z,94744.00
2023-04-02T10:03:55.841Z,94744.00
2023-04-02T10:04:55.764Z,94742.00
2023-04-02T10:05:55.660Z,94748.00
2023-04-02T10:06:55.597Z,94748.00
2023-04-02T10:07:55.551Z,94746.00
2023-04-02T10:08:55.538Z,94750.00
2023-04-02T10:09:55.488Z,94746.00
2023-04-02T10:10:55.476Z,94750.00
2023-04-02T10:11:55.448Z,94752.00
2023-04-02T10:12:55.400Z,94752.00
2023-04-02T10:13:55.372Z,94752.00
2023-04-02T10:14:55.331Z,94752.00
2023-04-02T10:15:55.286Z,94748.00
2023-04-02T10:16:55.290Z,94754.00
2023-04-02T10:17:55.234Z,94748.00
2023-04-02T10:18:55.224Z,94744.00
2023-04-02T10:19:55.191Z,94748.00
2023-04-02T10:20:55.160Z,94748.00
2023-04-02T10:21:55.088Z,94748.00
2023-04-02T10:22:55.076Z,94744.00
2023-04-02T10:23:55.106Z,94742.00
2023-04-02T10:24:55.100Z,94742.00
2023-04-02T10:25:55.068Z,94744.00
2023-04-02T10:26:55.076Z,94746.00
2023-04-02T10:27:55.063Z,94746.00
2023-04-02T10:28:55.056Z,94750.00
2023-04-02T10:29:55.072Z,94746.00
2023-04-02T10:30:55.116Z,94750.00
2023-04-02T10:31:55.118Z,94748.00
2023-04-02T10:32:55.130Z,94750.00
2023-04-02T10:33:55.147Z,94762.00
2023-04-02T10:34:55.175Z,94754.00
2023-04-02T10:35:55.246Z,94756.00
2023-04-02T10:36:55.202Z,94762.00
2023-04-02T10:37:55.191Z,94758.00
2023-04-02T10:38:55.227Z,94756.00
2023-04-02T10:39:55.253Z,94762.00
2023-04-02T10:40:56.952Z,94764.00
2023-04-02T10:41:55.203Z,94762.00
2023-04-02T10:42:55.190Z,94768.00
2023-04-02T10:43:55.906Z,94772.00
2023-04-02T10:44:55.203Z,94756.00
2023-04-02T10:45:55.226Z,94774.00
2023-04-02T10:46:55.189Z,94768.00
2023-04-02T10:47:55.230Z,94770.00
2023-04-02T10:48:55.213Z,94764.00
2023-04-02T10:49:55.174Z,94766.00
2023-04-02T10:50:55.205Z,94764.00
2023-04-02T10:51:55.184Z,94772.00
2023-04-02T10:52:56.521Z,94778.00
2023-04-02T10:53:55.294Z,94768.00
2023-04-02T10:54:55.335Z,94776.00
2023-04-02T10:55:55.396Z,94772.00
2023-04-02T10:56:55.458Z,94774.00
2023-04-02T10:57:55.441Z,94772.00
2023-04-02T10:58:57.323Z,94770.00
2023-04-02T10:59:55.517Z,94774.00
2023-04-02T11:00:55.542Z,94768.00
2023-04-02T11:01:55.639Z,94778.00
2023-04-02T11:02:55.646Z,94778.00
2023-04-02T11:03:57.874Z,94776.00
2023-04-02T11:04:57.198Z,94778.00
2023-04-02T11:05:56.969Z,94782.00
2023-04-02T11:07:07.225Z,94780.00
2023-04-02T11:07:55.709Z,94782.00
2023-04-02T11:08:55.747Z,94780.00
2023-04-02T11:09:55.698Z,94785.00
2023-04-02T11:10:55.705Z,94785.00
2023-04-02T11:11:55.687Z,94782.00
2023-04-02T11:12:55.687Z,94780.00
2023-04-02T11:13:55.672Z,94782.00
2023-04-02T11:14:55.664Z,94787.00
2023-04-02T11:15:55.722Z,94780.00
2023-04-02T11:16:55.672Z,94778.00
2023-04-02T11:17:55.712Z,94784.00
2023-04-02T11:18:55.681Z,94784.00
2023-04-02T11:19:55.655Z,94782.00
2023-04-02T11:20:55.667Z,94789.00
2023-04-02T11:21:59.375Z,94784.00
2023-04-02T11:22:55.838Z,94787.00
2023-04-02T11:23:55.640Z,94785.00
2023-04-02T11:24:55.662Z,94784.00
2023-04-02T11:25:55.632Z,94787.00
2023-04-02T11:26:55.619Z,94791.00
2023-04-02T11:27:55.601Z,94789.00
2023-04-02T11:28:55.593Z,94797.00
2023-04-02T11:29:55.590Z,94795.00
2023-04-02T11:30:55.594Z,94807.00
2023-04-02T11:31:55.615Z,94795.00
2023-04-02T11:32:55.592Z,94797.00
2023-04-02T11:33:55.561Z,94801.00
2023-04-02T11:35:54.643Z,94805.00
2023-04-02T11:36:55.541Z,94801.00
2023-04-02T11:37:55.547Z,94807.00
2023-04-02T11:39:04.428Z,94807.00
2023-04-02T11:39:55.507Z,94805.00
2023-04-02T11:40:55.530Z,94811.00
2023-04-02T11:41:55.479Z,94809.00
2023-04-02T11:42:55.465Z,94813.00
2023-04-02T11:43:55.485Z,94813.00
2023-04-02T11:44:55.460Z,94813.00
2023-04-02T11:45:55.815Z,94815.00